sensor_id;sensor_type;location;lat;lon;timestamp;temperature;humidity
2327;DHT22;1174;51.588;7.328;2023-02-25T00:01:05;4.60;99.90
2327;DHT22;1174;51.588;7.328;2023-02-25T00:03:33;4.60;99.90
2327;DHT22;1174;51.588;7.328;2023-02-25T00:06:00;4.60;99.90
2327;DHT22;1174;51.588;7.328;2023-02-25T00:08:27;4.60;99.90
2327;DHT22;1174;51.588;7.328;2023-02-25T00:10:58;4.60;99.90
2327;DHT22;1174;51.588;7.328;2023-02-25T00:13:26;4.60;99.90
2327;DHT22;1174;51.588;7.328;2023-02-25T00:15:54;4.60;99.90
2327;DHT22;1174;51.588;7.328;2023-02-25T00:18:24;4.70;99.90
2327;DHT22;1174;51.588;7.328;2023-02-25T00:20:51;4.70;99.90
2327;DHT22;1174;51.588;7.328;2023-02-25T00:23:18;4.70;99.90
2327;DHT22;1174;51.588;7.328;2023-02-25T00:25:46;4.70;99.90
2327;DHT22;1174;51.588;7.328;2023-02-25T00:28:13;4.70;99.90
2327;DHT22;1174;51.588;7.328;2023-02-25T00:30:40;4.60;99.90
2327;DHT22;1174;51.588;7.328;2023-02-25T00:33:08;4.70;99.90
2327;DHT22;1174;51.588;7.328;2023-02-25T00:35:39;4.70;99.90
2327;DHT22;1174;51.588;7.328;2023-02-25T00:38:06;4.70;99.90
2327;DHT22;1174;51.588;7.328;2023-02-25T00:40:36;4.80;99.90
2327;DHT22;1174;51.588;7.328;2023-02-25T00:43:04;4.60;99.90
2327;DHT22;1174;51.588;7.328;2023-02-25T00:45:31;4.60;99.90
2327;DHT22;1174;51.588;7.328;2023-02-25T00:47:58;4.60;99.90
2327;DHT22;1174;51.588;7.328;2023-02-25T00:50:26;4.70;99.90
2327;DHT22;1174;51.588;7.328;2023-02-25T00:52:54;4.80;99.90
2327;DHT22;1174;51.588;7.328;2023-02-25T00:55:21;4.80;99.90
2327;DHT22;1174;51.588;7.328;2023-02-25T00:57:48;4.70;99.90
2327;DHT22;1174;51.588;7.328;2023-02-25T01:00:15;4.70;99.90
2327;DHT22;1174;51.588;7.328;2023-02-25T01:02:42;4.70;99.90
2327;DHT22;1174;51.588;7.328;2023-02-25T01:05:12;4.80;99.90
2327;DHT22;1174;51.588;7.328;2023-02-25T01:07:39;4.70;99.90
2327;DHT22;1174;51.588;7.328;2023-02-25T01:10:09;4.80;99.90
2327;DHT22;1174;51.588;7.328;2023-02-25T01:12:36;4.70;99.90
2327;DHT22;1174;51.588;7.328;2023-02-25T01:15:04;4.80;99.90
2327;DHT22;1174;51.588;7.328;2023-02-25T01:17:31;4.70;99.90
2327;DHT22;1174;51.588;7.328;2023-02-25T01:19:58;4.70;99.90
2327;DHT22;1174;51.588;7.328;2023-02-25T01:22:25;4.70;99.90
2327;DHT22;1174;51.588;7.328;2023-02-25T01:24:53;4.70;99.90
2327;DHT22;1174;51.588;7.328;2023-02-25T01:27:22;4.70;99.90
2327;DHT22;1174;51.588;7.328;2023-02-25T01:29:49;4.80;99.90
2327;DHT22;1174;51.588;7.328;2023-02-25T01:32:15;4.70;99.90
2327;DHT22;1174;51.588;7.328;2023-02-25T01:34:43;4.80;99.90
2327;DHT22;1174;51.588;7.328;2023-02-25T01:37:10;4.80;99.90
2327;DHT22;1174;51.588;7.328;2023-02-25T01:39:38;4.80;99.90
2327;DHT22;1174;51.588;7.328;2023-02-25T01:42:12;4.80;99.90
2327;DHT22;1174;51.588;7.328;2023-02-25T01:47:41;4.90;99.90
2327;DHT22;1174;51.588;7.328;2023-02-25T01:50:09;4.90;99.90
2327;DHT22;1174;51.588;7.328;2023-02-25T01:52:39;4.90;99.90
2327;DHT22;1174;51.588;7.328;2023-02-25T01:55:08;4.90;99.90
2327;DHT22;1174;51.588;7.328;2023-02-25T01:57:36;4.90;99.90
2327;DHT22;1174;51.588;7.328;2023-02-25T02:00:08;4.80;99.90
2327;DHT22;1174;51.588;7.328;2023-02-25T02:02:43;4.70;99.90
2327;DHT22;1174;51.588;7.328;2023-02-25T02:05:11;4.70;99.90
2327;DHT22;1174;51.588;7.328;2023-02-25T02:07:39;4.60;99.90
2327;DHT22;1174;51.588;7.328;2023-02-25T02:10:09;4.70;99.90
2327;DHT22;1174;51.588;7.328;2023-02-25T02:12:40;4.70;99.90
2327;DHT22;1174;51.588;7.328;2023-02-25T02:15:10;4.70;99.90
2327;DHT22;1174;51.588;7.328;2023-02-25T02:17:45;4.60;99.90
2327;DHT22;1174;51.588;7.328;2023-02-25T02:20:15;4.60;99.90
2327;DHT22;1174;51.588;7.328;2023-02-25T02:23:04;4.60;99.90
2327;DHT22;1174;51.588;7.328;2023-02-25T02:26:02;4.60;99.90
2327;DHT22;1174;51.588;7.328;2023-02-25T02:31:59;4.70;99.90
2327;DHT22;1174;51.588;7.328;2023-02-25T02:34:35;4.70;99.90
2327;DHT22;1174;51.588;7.328;2023-02-25T02:37:16;4.60;99.90
2327;DHT22;1174;51.588;7.328;2023-02-25T02:39:53;4.50;99.90
2327;DHT22;1174;51.588;7.328;2023-02-25T02:42:29;4.50;99.90
2327;DHT22;1174;51.588;7.328;2023-02-25T02:45:05;4.50;99.90
2327;DHT22;1174;51.588;7.328;2023-02-25T02:47:39;4.50;99.90
2327;DHT22;1174;51.588;7.328;2023-02-25T02:50:11;4.40;99.90
2327;DHT22;1174;51.588;7.328;2023-02-25T02:52:41;4.50;99.90
2327;DHT22;1174;51.588;7.328;2023-02-25T02:55:12;4.40;99.90
2327;DHT22;1174;51.588;7.328;2023-02-25T02:57:47;4.50;99.90
2327;DHT22;1174;51.588;7.328;2023-02-25T03:00:19;4.50;99.90
2327;DHT22;1174;51.588;7.328;2023-02-25T03:02:56;4.50;99.90
2327;DHT22;1174;51.588;7.328;2023-02-25T03:05:26;4.40;99.90
2327;DHT22;1174;51.588;7.328;2023-02-25T03:07:59;4.50;99.90
2327;DHT22;1174;51.588;7.328;2023-02-25T03:10:27;4.40;99.90
2327;DHT22;1174;51.588;7.328;2023-02-25T03:12:54;4.60;99.90
2327;DHT22;1174;51.588;7.328;2023-02-25T03:15:22;4.70;99.90
2327;DHT22;1174;51.588;7.328;2023-02-25T03:17:54;4.70;99.90
2327;DHT22;1174;51.588;7.328;2023-02-25T03:20:25;4.70;99.90
2327;DHT22;1174;51.588;7.328;2023-02-25T03:22:55;4.60;99.90
2327;DHT22;1174;51.588;7.328;2023-02-25T03:25:29;4.60;99.90
2327;DHT22;1174;51.588;7.328;2023-02-25T03:28:02;4.60;99.90
2327;DHT22;1174;51.588;7.328;2023-02-25T03:30:33;4.60;99.90
2327;DHT22;1174;51.588;7.328;2023-02-25T03:33:11;4.70;99.90
2327;DHT22;1174;51.588;7.328;2023-02-25T03:35:40;4.60;99.90
2327;DHT22;1174;51.588;7.328;2023-02-25T03:38:13;4.60;99.90
2327;DHT22;1174;51.588;7.328;2023-02-25T03:40:42;4.60;99.90
2327;DHT22;1174;51.588;7.328;2023-02-25T03:43:13;4.60;99.90
2327;DHT22;1174;51.588;7.328;2023-02-25T03:45:43;4.60;99.90
2327;DHT22;1174;51.588;7.328;2023-02-25T03:48:14;4.70;99.90
2327;DHT22;1174;51.588;7.328;2023-02-25T03:50:46;4.60;99.90
2327;DHT22;1174;51.588;7.328;2023-02-25T03:53:14;4.60;99.90
2327;DHT22;1174;51.588;7.328;2023-02-25T03:55:41;4.70;99.90
2327;DHT22;1174;51.588;7.328;2023-02-25T03:58:08;4.70;99.90
2327;DHT22;1174;51.588;7.328;2023-02-25T04:00:37;4.60;99.90
2327;DHT22;1174;51.588;7.328;2023-02-25T04:03:04;4.70;99.90
2327;DHT22;1174;51.588;7.328;2023-02-25T04:05:32;4.70;99.90
2327;DHT22;1174;51.588;7.328;2023-02-25T04:08:00;4.70;99.90
2327;DHT22;1174;51.588;7.328;2023-02-25T04:10:27;4.70;99.90
2327;DHT22;1174;51.588;7.328;2023-02-25T04:12:55;4.60;99.90
2327;DHT22;1174;51.588;7.328;2023-02-25T04:15:22;4.70;99.90
2327;DHT22;1174;51.588;7.328;2023-02-25T04:17:53;4.70;99.90
2327;DHT22;1174;51.588;7.328;2023-02-25T04:20:20;4.70;99.90
2327;DHT22;1174;51.588;7.328;2023-02-25T04:22:51;4.70;99.90
2327;DHT22;1174;51.588;7.328;2023-02-25T04:25:18;4.70;99.90
2327;DHT22;1174;51.588;7.328;2023-02-25T04:27:44;4.70;99.90
2327;DHT22;1174;51.588;7.328;2023-02-25T04:30:12;4.70;99.90
2327;DHT22;1174;51.588;7.328;2023-02-25T04:32:40;4.70;99.90
2327;DHT22;1174;51.588;7.328;2023-02-25T04:35:08;4.70;99.90
2327;DHT22;1174;51.588;7.328;2023-02-25T04:37:38;4.70;99.90
2327;DHT22;1174;51.588;7.328;2023-02-25T04:40:12;4.70;99.90
2327;DHT22;1174;51.588;7.328;2023-02-25T04:42:40;4.70;99.90
2327;DHT22;1174;51.588;7.328;2023-02-25T04:45:08;4.70;99.90
2327;DHT22;1174;51.588;7.328;2023-02-25T04:47:36;4.70;99.90
2327;DHT22;1174;51.588;7.328;2023-02-25T04:50:05;4.70;99.90
2327;DHT22;1174;51.588;7.328;2023-02-25T04:52:32;4.70;99.90
2327;DHT22;1174;51.588;7.328;2023-02-25T04:54:59;4.70;99.90
2327;DHT22;1174;51.588;7.328;2023-02-25T04:57:30;4.70;99.90
2327;DHT22;1174;51.588;7.328;2023-02-25T04:59:57;4.70;99.90
2327;DHT22;1174;51.588;7.328;2023-02-25T05:02:23;4.60;99.90
2327;DHT22;1174;51.588;7.328;2023-02-25T05:04:50;4.60;99.90
2327;DHT22;1174;51.588;7.328;2023-02-25T05:07:17;4.60;99.90
2327;DHT22;1174;51.588;7.328;2023-02-25T05:09:44;4.60;99.90
2327;DHT22;1174;51.588;7.328;2023-02-25T05:12:11;4.60;99.90
2327;DHT22;1174;51.588;7.328;2023-02-25T05:14:39;4.60;99.90
2327;DHT22;1174;51.588;7.328;2023-02-25T05:17:06;4.60;99.90
2327;DHT22;1174;51.588;7.328;2023-02-25T05:19:33;4.60;99.90
2327;DHT22;1174;51.588;7.328;2023-02-25T05:21:59;4.60;99.90
2327;DHT22;1174;51.588;7.328;2023-02-25T05:24:26;4.60;99.90
2327;DHT22;1174;51.588;7.328;2023-02-25T05:26:53;4.50;99.90
2327;DHT22;1174;51.588;7.328;2023-02-25T05:29:20;4.60;99.90
2327;DHT22;1174;51.588;7.328;2023-02-25T05:31:48;4.60;99.90
2327;DHT22;1174;51.588;7.328;2023-02-25T05:34:16;4.70;99.90
2327;DHT22;1174;51.588;7.328;2023-02-25T05:36:43;4.70;99.90
2327;DHT22;1174;51.588;7.328;2023-02-25T05:39:11;4.80;99.90
2327;DHT22;1174;51.588;7.328;2023-02-25T05:41:39;4.80;99.90
2327;DHT22;1174;51.588;7.328;2023-02-25T05:44:06;4.80;99.90
2327;DHT22;1174;51.588;7.328;2023-02-25T05:46:33;4.70;99.90
2327;DHT22;1174;51.588;7.328;2023-02-25T05:49:02;4.70;99.90
2327;DHT22;1174;51.588;7.328;2023-02-25T05:51:29;4.70;99.90
2327;DHT22;1174;51.588;7.328;2023-02-25T05:53:56;4.80;99.90
2327;DHT22;1174;51.588;7.328;2023-02-25T05:56:24;4.80;99.90
2327;DHT22;1174;51.588;7.328;2023-02-25T05:58:52;4.70;99.90
2327;DHT22;1174;51.588;7.328;2023-02-25T06:01:21;4.70;99.90
2327;DHT22;1174;51.588;7.328;2023-02-25T06:03:49;4.60;99.90
2327;DHT22;1174;51.588;7.328;2023-02-25T06:06:19;4.60;99.90
2327;DHT22;1174;51.588;7.328;2023-02-25T06:08:48;4.60;99.90
2327;DHT22;1174;51.588;7.328;2023-02-25T06:11:18;4.50;99.90
2327;DHT22;1174;51.588;7.328;2023-02-25T06:13:47;4.50;99.90
2327;DHT22;1174;51.588;7.328;2023-02-25T06:16:14;4.40;99.90
2327;DHT22;1174;51.588;7.328;2023-02-25T06:18:41;4.50;99.90
2327;DHT22;1174;51.588;7.328;2023-02-25T06:21:09;4.60;99.90
2327;DHT22;1174;51.588;7.328;2023-02-25T06:23:41;4.50;99.90
2327;DHT22;1174;51.588;7.328;2023-02-25T06:26:10;4.50;99.90
2327;DHT22;1174;51.588;7.328;2023-02-25T06:28:38;4.60;99.90
2327;DHT22;1174;51.588;7.328;2023-02-25T06:31:06;4.60;99.90
2327;DHT22;1174;51.588;7.328;2023-02-25T06:33:34;4.70;99.90
2327;DHT22;1174;51.588;7.328;2023-02-25T06:36:01;4.60;99.90
2327;DHT22;1174;51.588;7.328;2023-02-25T06:38:29;4.60;99.90
2327;DHT22;1174;51.588;7.328;2023-02-25T06:41:03;4.70;99.90
2327;DHT22;1174;51.588;7.328;2023-02-25T06:43:30;4.70;99.90
2327;DHT22;1174;51.588;7.328;2023-02-25T06:45:57;4.70;99.90
2327;DHT22;1174;51.588;7.328;2023-02-25T06:48:24;4.80;99.90
2327;DHT22;1174;51.588;7.328;2023-02-25T06:50:51;4.80;99.90
2327;DHT22;1174;51.588;7.328;2023-02-25T06:53:18;4.70;99.90
2327;DHT22;1174;51.588;7.328;2023-02-25T06:55:45;4.80;99.90
2327;DHT22;1174;51.588;7.328;2023-02-25T06:58:13;4.70;99.90
2327;DHT22;1174;51.588;7.328;2023-02-25T07:00:41;4.80;99.90
2327;DHT22;1174;51.588;7.328;2023-02-25T07:03:09;4.90;99.90
2327;DHT22;1174;51.588;7.328;2023-02-25T07:05:36;4.90;99.90
2327;DHT22;1174;51.588;7.328;2023-02-25T07:08:06;4.90;99.90
2327;DHT22;1174;51.588;7.328;2023-02-25T07:10:33;5.00;99.90
2327;DHT22;1174;51.588;7.328;2023-02-25T07:13:00;5.10;99.90
2327;DHT22;1174;51.588;7.328;2023-02-25T07:15:29;5.10;99.90
2327;DHT22;1174;51.588;7.328;2023-02-25T07:17:56;4.90;99.90
2327;DHT22;1174;51.588;7.328;2023-02-25T07:20:22;5.00;99.90
2327;DHT22;1174;51.588;7.328;2023-02-25T07:22:50;5.10;99.90
2327;DHT22;1174;51.588;7.328;2023-02-25T07:25:17;5.00;99.90
2327;DHT22;1174;51.588;7.328;2023-02-25T07:27:44;5.10;99.90
2327;DHT22;1174;51.588;7.328;2023-02-25T07:30:12;5.10;99.90
2327;DHT22;1174;51.588;7.328;2023-02-25T07:32:41;5.00;99.90
2327;DHT22;1174;51.588;7.328;2023-02-25T07:35:08;5.00;99.90
2327;DHT22;1174;51.588;7.328;2023-02-25T07:37:36;4.90;99.90
2327;DHT22;1174;51.588;7.328;2023-02-25T07:40:03;4.90;99.90
2327;DHT22;1174;51.588;7.328;2023-02-25T07:42:38;5.00;99.90
2327;DHT22;1174;51.588;7.328;2023-02-25T07:45:07;5.00;99.90
2327;DHT22;1174;51.588;7.328;2023-02-25T07:47:35;5.10;99.90
2327;DHT22;1174;51.588;7.328;2023-02-25T07:50:04;5.20;99.90
2327;DHT22;1174;51.588;7.328;2023-02-25T07:52:31;5.20;99.90
2327;DHT22;1174;51.588;7.328;2023-02-25T07:54:58;5.10;99.90
2327;DHT22;1174;51.588;7.328;2023-02-25T07:57:26;5.10;99.90
2327;DHT22;1174;51.588;7.328;2023-02-25T07:59:53;5.10;99.90
2327;DHT22;1174;51.588;7.328;2023-02-25T08:02:20;5.10;99.90
2327;DHT22;1174;51.588;7.328;2023-02-25T08:04:47;5.30;99.90
2327;DHT22;1174;51.588;7.328;2023-02-25T08:07:15;5.30;99.90
2327;DHT22;1174;51.588;7.328;2023-02-25T08:09:42;5.40;99.90
2327;DHT22;1174;51.588;7.328;2023-02-25T08:12:09;5.40;99.90
2327;DHT22;1174;51.588;7.328;2023-02-25T08:14:36;5.40;99.90
2327;DHT22;1174;51.588;7.328;2023-02-25T08:17:03;5.70;99.90
2327;DHT22;1174;51.588;7.328;2023-02-25T08:19:30;6.00;99.90
2327;DHT22;1174;51.588;7.328;2023-02-25T08:21:57;6.20;99.90
2327;DHT22;1174;51.588;7.328;2023-02-25T08:24:26;6.50;99.90
2327;DHT22;1174;51.588;7.328;2023-02-25T08:26:53;6.70;99.90
2327;DHT22;1174;51.588;7.328;2023-02-25T08:29:20;6.70;99.90
2327;DHT22;1174;51.588;7.328;2023-02-25T08:31:49;6.90;99.90
2327;DHT22;1174;51.588;7.328;2023-02-25T08:34:16;6.90;99.90
2327;DHT22;1174;51.588;7.328;2023-02-25T08:36:44;6.80;99.90
2327;DHT22;1174;51.588;7.328;2023-02-25T08:39:11;7.00;99.90
2327;DHT22;1174;51.588;7.328;2023-02-25T08:41:39;7.00;99.90
2327;DHT22;1174;51.588;7.328;2023-02-25T08:44:07;7.00;99.90
2327;DHT22;1174;51.588;7.328;2023-02-25T08:46:34;6.90;99.90
2327;DHT22;1174;51.588;7.328;2023-02-25T08:49:03;7.00;99.90
2327;DHT22;1174;51.588;7.328;2023-02-25T08:51:31;6.80;99.90
2327;DHT22;1174;51.588;7.328;2023-02-25T08:54:05;6.70;99.90
2327;DHT22;1174;51.588;7.328;2023-02-25T08:56:33;6.60;99.90
2327;DHT22;1174;51.588;7.328;2023-02-25T08:59:02;6.40;99.90
2327;DHT22;1174;51.588;7.328;2023-02-25T09:01:29;6.40;99.90
2327;DHT22;1174;51.588;7.328;2023-02-25T09:04:09;6.20;99.90
2327;DHT22;1174;51.588;7.328;2023-02-25T09:06:36;6.10;99.90
2327;DHT22;1174;51.588;7.328;2023-02-25T09:09:03;5.90;99.90
2327;DHT22;1174;51.588;7.328;2023-02-25T09:11:31;5.80;99.90
2327;DHT22;1174;51.588;7.328;2023-02-25T09:13:59;5.60;99.90
2327;DHT22;1174;51.588;7.328;2023-02-25T09:16:29;5.70;99.90
2327;DHT22;1174;51.588;7.328;2023-02-25T09:18:57;5.60;99.90
2327;DHT22;1174;51.588;7.328;2023-02-25T09:21:24;5.70;99.90
2327;DHT22;1174;51.588;7.328;2023-02-25T09:23:51;6.00;99.90
2327;DHT22;1174;51.588;7.328;2023-02-25T09:26:18;6.60;99.90
2327;DHT22;1174;51.588;7.328;2023-02-25T09:28:45;7.70;99.90
2327;DHT22;1174;51.588;7.328;2023-02-25T09:31:14;8.20;99.90
2327;DHT22;1174;51.588;7.328;2023-02-25T09:33:43;7.70;99.90
2327;DHT22;1174;51.588;7.328;2023-02-25T09:36:12;7.40;99.90
2327;DHT22;1174;51.588;7.328;2023-02-25T09:38:41;7.50;99.90
2327;DHT22;1174;51.588;7.328;2023-02-25T09:41:21;7.20;99.90
2327;DHT22;1174;51.588;7.328;2023-02-25T09:44:01;7.10;99.90
2327;DHT22;1174;51.588;7.328;2023-02-25T09:46:32;7.00;99.90
2327;DHT22;1174;51.588;7.328;2023-02-25T09:49:05;7.00;99.90
2327;DHT22;1174;51.588;7.328;2023-02-25T09:51:36;7.00;99.90
2327;DHT22;1174;51.588;7.328;2023-02-25T09:54:14;7.10;99.90
2327;DHT22;1174;51.588;7.328;2023-02-25T09:56:42;7.60;99.90
2327;DHT22;1174;51.588;7.328;2023-02-25T09:59:13;8.20;99.90
2327;DHT22;1174;51.588;7.328;2023-02-25T10:01:45;8.40;99.90
2327;DHT22;1174;51.588;7.328;2023-02-25T10:04:22;8.60;99.90
2327;DHT22;1174;51.588;7.328;2023-02-25T10:06:51;8.60;99.90
2327;DHT22;1174;51.588;7.328;2023-02-25T10:09:28;8.50;99.90
2327;DHT22;1174;51.588;7.328;2023-02-25T10:12:04;6.90;99.90
2327;DHT22;1174;51.588;7.328;2023-02-25T10:17:31;5.10;99.90
2327;DHT22;1174;51.588;7.328;2023-02-25T10:20:33;5.30;99.90
2327;DHT22;1174;51.588;7.328;2023-02-25T10:23:08;5.50;99.90
2327;DHT22;1174;51.588;7.328;2023-02-25T10:25:43;6.00;99.90
2327;DHT22;1174;51.588;7.328;2023-02-25T10:28:14;6.80;99.90
2327;DHT22;1174;51.588;7.328;2023-02-25T10:30:47;8.00;99.90
2327;DHT22;1174;51.588;7.328;2023-02-25T10:33:18;8.30;99.90
2327;DHT22;1174;51.588;7.328;2023-02-25T10:35:51;9.10;99.90
2327;DHT22;1174;51.588;7.328;2023-02-25T10:38:20;9.60;99.90
2327;DHT22;1174;51.588;7.328;2023-02-25T10:40:47;9.60;99.90
2327;DHT22;1174;51.588;7.328;2023-02-25T10:43:18;10.10;99.90
2327;DHT22;1174;51.588;7.328;2023-02-25T10:45:49;10.60;99.90
2327;DHT22;1174;51.588;7.328;2023-02-25T10:48:20;10.60;99.90
2327;DHT22;1174;51.588;7.328;2023-02-25T10:51:03;11.10;99.90
2327;DHT22;1174;51.588;7.328;2023-02-25T10:53:32;10.70;99.90
2327;DHT22;1174;51.588;7.328;2023-02-25T10:56:00;10.50;99.90
2327;DHT22;1174;51.588;7.328;2023-02-25T10:58:33;11.10;99.90
2327;DHT22;1174;51.588;7.328;2023-02-25T11:01:05;10.40;99.90
2327;DHT22;1174;51.588;7.328;2023-02-25T11:03:39;9.70;99.90
2327;DHT22;1174;51.588;7.328;2023-02-25T11:06:12;8.60;99.90
2327;DHT22;1174;51.588;7.328;2023-02-25T11:08:41;8.10;99.90
2327;DHT22;1174;51.588;7.328;2023-02-25T11:11:15;7.90;99.90
2327;DHT22;1174;51.588;7.328;2023-02-25T11:13:53;8.00;99.90
2327;DHT22;1174;51.588;7.328;2023-02-25T11:16:20;9.50;99.90
2327;DHT22;1174;51.588;7.328;2023-02-25T11:18:52;11.70;99.90
2327;DHT22;1174;51.588;7.328;2023-02-25T11:21:33;13.20;99.90
2327;DHT22;1174;51.588;7.328;2023-02-25T11:24:03;13.90;99.90
2327;DHT22;1174;51.588;7.328;2023-02-25T11:26:32;14.50;99.90
2327;DHT22;1174;51.588;7.328;2023-02-25T11:29:03;14.50;99.90
2327;DHT22;1174;51.588;7.328;2023-02-25T11:31:34;13.20;99.90
2327;DHT22;1174;51.588;7.328;2023-02-25T11:34:05;11.30;99.90
2327;DHT22;1174;51.588;7.328;2023-02-25T11:36:36;9.60;99.90
2327;DHT22;1174;51.588;7.328;2023-02-25T11:39:14;8.70;99.90
2327;DHT22;1174;51.588;7.328;2023-02-25T11:41:42;8.10;99.90
2327;DHT22;1174;51.588;7.328;2023-02-25T11:44:18;7.70;99.90
2327;DHT22;1174;51.588;7.328;2023-02-25T11:46:53;7.30;99.90
2327;DHT22;1174;51.588;7.328;2023-02-25T11:49:26;7.10;99.90
2327;DHT22;1174;51.588;7.328;2023-02-25T11:52:04;7.10;99.90
2327;DHT22;1174;51.588;7.328;2023-02-25T11:54:42;7.50;99.90
2327;DHT22;1174;51.588;7.328;2023-02-25T11:57:17;7.60;99.90
2327;DHT22;1174;51.588;7.328;2023-02-25T11:59:58;7.40;99.90
2327;DHT22;1174;51.588;7.328;2023-02-25T12:02:37;7.70;99.90
2327;DHT22;1174;51.588;7.328;2023-02-25T12:08:30;10.90;99.90
2327;DHT22;1174;51.588;7.328;2023-02-25T12:20:56;12.00;93.60
2327;DHT22;1174;51.588;7.328;2023-02-25T12:24:09;9.70;95.20
2327;DHT22;1174;51.588;7.328;2023-02-25T12:29:57;8.20;97.60
2327;DHT22;1174;51.588;7.328;2023-02-25T12:32:44;9.30;97.50
2327;DHT22;1174;51.588;7.328;2023-02-25T12:35:35;10.10;95.90
2327;DHT22;1174;51.588;7.328;2023-02-25T12:38:34;11.30;96.40
2327;DHT22;1174;51.588;7.328;2023-02-25T12:41:24;12.00;90.90
2327;DHT22;1174;51.588;7.328;2023-02-25T12:44:07;12.40;88.90
2327;DHT22;1174;51.588;7.328;2023-02-25T12:46:49;12.30;90.00
2327;DHT22;1174;51.588;7.328;2023-02-25T12:49:46;11.60;89.00
2327;DHT22;1174;51.588;7.328;2023-02-25T12:55:24;11.90;87.00
2327;DHT22;1174;51.588;7.328;2023-02-25T12:58:26;11.90;90.30
2327;DHT22;1174;51.588;7.328;2023-02-25T13:01:21;11.20;87.20
2327;DHT22;1174;51.588;7.328;2023-02-25T13:04:27;11.00;87.90
2327;DHT22;1174;51.588;7.328;2023-02-25T13:07:27;11.50;87.70
2327;DHT22;1174;51.588;7.328;2023-02-25T13:10:08;11.60;85.20
2327;DHT22;1174;51.588;7.328;2023-02-25T13:12:55;11.50;84.80
2327;DHT22;1174;51.588;7.328;2023-02-25T13:15:31;12.50;82.40
2327;DHT22;1174;51.588;7.328;2023-02-25T13:18:10;13.90;82.10
2327;DHT22;1174;51.588;7.328;2023-02-25T13:23:56;13.10;67.60
2327;DHT22;1174;51.588;7.328;2023-02-25T13:30:04;12.80;74.10
2327;DHT22;1174;51.588;7.328;2023-02-25T13:32:44;13.60;73.90
2327;DHT22;1174;51.588;7.328;2023-02-25T13:35:21;14.00;71.60
2327;DHT22;1174;51.588;7.328;2023-02-25T13:37:58;14.40;67.50
2327;DHT22;1174;51.588;7.328;2023-02-25T13:43:37;12.10;62.40
2327;DHT22;1174;51.588;7.328;2023-02-25T13:46:39;13.30;63.80
2327;DHT22;1174;51.588;7.328;2023-02-25T13:49:29;14.10;59.30
2327;DHT22;1174;51.588;7.328;2023-02-25T13:52:06;14.20;57.60
2327;DHT22;1174;51.588;7.328;2023-02-25T13:55:07;13.80;55.30
2327;DHT22;1174;51.588;7.328;2023-02-25T13:57:53;14.50;56.40
2327;DHT22;1174;51.588;7.328;2023-02-25T14:00:41;14.10;56.30
2327;DHT22;1174;51.588;7.328;2023-02-25T14:03:26;13.30;56.20
2327;DHT22;1174;51.588;7.328;2023-02-25T14:06:10;13.40;56.40
2327;DHT22;1174;51.588;7.328;2023-02-25T14:08:57;13.00;56.90
2327;DHT22;1174;51.588;7.328;2023-02-25T14:11:48;13.20;56.30
2327;DHT22;1174;51.588;7.328;2023-02-25T14:14:48;13.30;56.40
2327;DHT22;1174;51.588;7.328;2023-02-25T14:17:38;13.50;56.40
2327;DHT22;1174;51.588;7.328;2023-02-25T14:20:24;12.10;55.70
2327;DHT22;1174;51.588;7.328;2023-02-25T14:22:59;12.60;57.70
2327;DHT22;1174;51.588;7.328;2023-02-25T14:25:40;13.10;55.00
2327;DHT22;1174;51.588;7.328;2023-02-25T14:28:17;12.80;54.10
2327;DHT22;1174;51.588;7.328;2023-02-25T14:30:56;12.60;53.90
2327;DHT22;1174;51.588;7.328;2023-02-25T14:33:56;12.30;56.20
2327;DHT22;1174;51.588;7.328;2023-02-25T14:36:38;13.30;56.10
2327;DHT22;1174;51.588;7.328;2023-02-25T14:39:31;13.80;55.30
2327;DHT22;1174;51.588;7.328;2023-02-25T14:42:11;13.50;55.30
2327;DHT22;1174;51.588;7.328;2023-02-25T14:44:46;13.00;56.70
2327;DHT22;1174;51.588;7.328;2023-02-25T14:47:17;13.10;56.60
2327;DHT22;1174;51.588;7.328;2023-02-25T14:49:56;13.20;56.50
2327;DHT22;1174;51.588;7.328;2023-02-25T14:55:52;12.50;55.70
2327;DHT22;1174;51.588;7.328;2023-02-25T14:58:48;12.80;55.10
2327;DHT22;1174;51.588;7.328;2023-02-25T15:01:38;12.30;54.30
2327;DHT22;1174;51.588;7.328;2023-02-25T15:04:22;12.50;55.60
2327;DHT22;1174;51.588;7.328;2023-02-25T15:07:06;12.50;55.80
2327;DHT22;1174;51.588;7.328;2023-02-25T15:10:17;12.90;56.00
2327;DHT22;1174;51.588;7.328;2023-02-25T15:13:11;13.60;55.30
2327;DHT22;1174;51.588;7.328;2023-02-25T15:16:11;12.30;56.00
2327;DHT22;1174;51.588;7.328;2023-02-25T15:19:07;12.10;57.90
2327;DHT22;1174;51.588;7.328;2023-02-25T15:21:42;11.90;57.50
2327;DHT22;1174;51.588;7.328;2023-02-25T15:24:36;12.20;56.60
2327;DHT22;1174;51.588;7.328;2023-02-25T15:30:18;10.70;54.70
2327;DHT22;1174;51.588;7.328;2023-02-25T15:33:20;10.30;54.00
2327;DHT22;1174;51.588;7.328;2023-02-25T15:35:58;10.10;55.20
2327;DHT22;1174;51.588;7.328;2023-02-25T15:38:41;10.10;55.30
2327;DHT22;1174;51.588;7.328;2023-02-25T15:41:41;11.10;55.50
2327;DHT22;1174;51.588;7.328;2023-02-25T15:44:35;10.50;54.80
2327;DHT22;1174;51.588;7.328;2023-02-25T15:47:28;10.40;54.40
2327;DHT22;1174;51.588;7.328;2023-02-25T15:49:57;10.20;54.10
2327;DHT22;1174;51.588;7.328;2023-02-25T15:52:49;10.30;54.10
2327;DHT22;1174;51.588;7.328;2023-02-25T16:01:22;8.30;55.50
2327;DHT22;1174;51.588;7.328;2023-02-25T16:03:51;7.70;56.80
2327;DHT22;1174;51.588;7.328;2023-02-25T16:06:20;7.70;58.30
2327;DHT22;1174;51.588;7.328;2023-02-25T16:08:55;7.60;58.50
2327;DHT22;1174;51.588;7.328;2023-02-25T16:11:35;7.40;59.60
2327;DHT22;1174;51.588;7.328;2023-02-25T16:14:06;7.40;61.00
2327;DHT22;1174;51.588;7.328;2023-02-25T16:16:34;7.50;63.20
2327;DHT22;1174;51.588;7.328;2023-02-25T16:19:05;7.30;63.40
2327;DHT22;1174;51.588;7.328;2023-02-25T16:21:40;7.30;65.10
2327;DHT22;1174;51.588;7.328;2023-02-25T16:24:09;7.00;65.50
2327;DHT22;1174;51.588;7.328;2023-02-25T16:26:43;7.10;66.80
2327;DHT22;1174;51.588;7.328;2023-02-25T16:29:24;7.20;67.20
2327;DHT22;1174;51.588;7.328;2023-02-25T16:31:56;7.00;66.20
2327;DHT22;1174;51.588;7.328;2023-02-25T16:34:30;6.70;66.40
2327;DHT22;1174;51.588;7.328;2023-02-25T16:37:06;6.40;66.50
2327;DHT22;1174;51.588;7.328;2023-02-25T16:39:37;6.40;67.80
2327;DHT22;1174;51.588;7.328;2023-02-25T16:42:09;6.10;66.30
2327;DHT22;1174;51.588;7.328;2023-02-25T16:44:40;6.20;67.90
2327;DHT22;1174;51.588;7.328;2023-02-25T16:47:20;6.20;67.00
2327;DHT22;1174;51.588;7.328;2023-02-25T16:49:50;6.10;68.70
2327;DHT22;1174;51.588;7.328;2023-02-25T16:52:20;5.90;69.20
2327;DHT22;1174;51.588;7.328;2023-02-25T16:54:53;5.90;70.90
2327;DHT22;1174;51.588;7.328;2023-02-25T16:57:22;5.90;71.10
2327;DHT22;1174;51.588;7.328;2023-02-25T16:59:49;5.90;71.80
2327;DHT22;1174;51.588;7.328;2023-02-25T17:02:23;5.90;72.00
2327;DHT22;1174;51.588;7.328;2023-02-25T17:04:53;5.70;71.50
2327;DHT22;1174;51.588;7.328;2023-02-25T17:07:23;5.70;72.30
2327;DHT22;1174;51.588;7.328;2023-02-25T17:09:54;5.90;72.80
2327;DHT22;1174;51.588;7.328;2023-02-25T17:12:28;5.80;72.70
2327;DHT22;1174;51.588;7.328;2023-02-25T17:14:57;5.70;72.80
2327;DHT22;1174;51.588;7.328;2023-02-25T17:17:28;5.70;73.60
2327;DHT22;1174;51.588;7.328;2023-02-25T17:20:00;5.70;74.70
2327;DHT22;1174;51.588;7.328;2023-02-25T17:22:30;5.80;75.50
2327;DHT22;1174;51.588;7.328;2023-02-25T17:24:58;5.80;75.70
2327;DHT22;1174;51.588;7.328;2023-02-25T17:27:26;5.70;75.40
2327;DHT22;1174;51.588;7.328;2023-02-25T17:29:54;5.40;75.40
2327;DHT22;1174;51.588;7.328;2023-02-25T17:32:22;5.30;76.20
2327;DHT22;1174;51.588;7.328;2023-02-25T17:34:51;5.20;77.40
2327;DHT22;1174;51.588;7.328;2023-02-25T17:37:21;5.10;77.80
2327;DHT22;1174;51.588;7.328;2023-02-25T17:39:48;5.20;78.70
2327;DHT22;1174;51.588;7.328;2023-02-25T17:42:31;5.10;78.70